Time;durP1;ratioP1;P1;durP2;ratioP2;P2;SDS_P1;SDS_P2;PMS_P1;PMS_P2;Temp;Humidity;BMP_temperature;BMP_pressure;BME280_temperature;BME280_humidity;BME280_pressure;Samples;Min_cycle;Max_cycle;Signal;HPM_P1;HPM_P2
2023/01/06 00:01:15;;;;;;;3.23;0.40;;;;;;;;;;5052656;28;20210;-91
2023/01/06 00:03:44;;;;;;;0.47;0.30;;;;;;;;;;5052260;28;20696;-91
2023/01/06 00:06:17;;;;;;;0.23;0.23;;;;;;;;;;5052385;28;20223;-90
2023/01/06 00:08:48;;;;;;;0.30;0.30;;;;;;;;;;5052449;28;20371;-88
2023/01/06 00:11:17;;;;;;;0.27;0.27;;;;;;;;;;5052650;28;20234;-90
2023/01/06 00:13:45;;;;;;;0.10;0.10;;;;;;;;;;5052538;28;20260;-91
2023/01/06 00:16:15;;;;;;;0.00;0.00;;;;;;;;;;5053138;28;20203;-89
2023/01/06 00:18:43;;;;;;;1.60;0.37;;;;;;;;;;5051974;28;20222;-90
2023/01/06 00:21:11;;;;;;;0.20;0.20;;;;;;;;;;5052167;28;20229;-90
2023/01/06 00:23:39;;;;;;;0.57;0.57;;;;;;;;;;5051764;28;20237;-90
2023/01/06 00:26:11;;;;;;;0.03;0.03;;;;;;;;;;5052215;28;20206;-89
2023/01/06 00:28:42;;;;;;;0.10;0.10;;;;;;;;;;5050282;28;20249;-90
2023/01/06 00:31:11;;;;;;;0.17;0.17;;;;;;;;;;5051342;28;20203;-89
2023/01/06 00:33:40;;;;;;;0.30;0.30;;;;;;;;;;5052239;28;20203;-88
2023/01/06 00:36:08;;;;;;;0.10;0.10;;;;;;;;;;5052615;28;20210;-90
2023/01/06 00:38:36;;;;;;;0.10;0.10;;;;;;;;;;5052815;28;20212;-89
2023/01/06 00:42:02;;;;;;;0.60;0.60;;;;;;;;;;5055727;28;20240;-89
2023/01/06 00:43:53;;;;;;;1.90;0.20;;;;;;;;;;5053996;28;20277;-89
2023/01/06 00:46:25;;;;;;;0.20;0.20;;;;;;;;;;5053374;28;20242;-88
2023/01/06 00:48:55;;;;;;;0.10;0.10;;;;;;;;;;5053376;28;20219;-88
2023/01/06 00:51:23;;;;;;;0.27;0.27;;;;;;;;;;5051736;28;20243;-90
2023/01/06 00:53:53;;;;;;;0.77;0.77;;;;;;;;;;5053158;28;20195;-89
2023/01/06 00:56:21;;;;;;;0.27;0.27;;;;;;;;;;5053002;28;20664;-90
2023/01/06 00:58:51;;;;;;;0.40;0.27;;;;;;;;;;5060549;28;20215;-89
2023/01/06 01:01:19;;;;;;;0.97;0.97;;;;;;;;;;5064695;28;20208;-90
2023/01/06 01:03:49;;;;;;;0.00;0.00;;;;;;;;;;5058245;28;20322;-88
2023/01/06 01:06:27;;;;;;;0.40;0.40;;;;;;;;;;5058008;28;20262;-88
2023/01/06 01:09:00;;;;;;;0.03;0.03;;;;;;;;;;5057411;28;20260;-89
2023/01/06 01:14:13;;;;;;;0.37;0.37;;;;;;;;;;5059822;28;20206;-90
2023/01/06 01:16:42;;;;;;;0.80;0.80;;;;;;;;;;5062233;28;20199;-89
2023/01/06 01:19:12;;;;;;;0.90;0.37;;;;;;;;;;5071357;28;20203;-88
2023/01/06 01:21:48;;;;;;;0.77;0.77;;;;;;;;;;5074609;28;20382;-90
2023/01/06 01:24:17;;;;;;;0.53;0.40;;;;;;;;;;5041085;28;20656;-89
2023/01/06 01:26:45;;;;;;;0.10;0.10;;;;;;;;;;5056512;28;20223;-90
2023/01/06 01:35:23;;;;;;;0.33;0.33;;;;;;;;;;5062129;28;20231;-91
2023/01/06 01:38:18;;;;;;;0.43;0.43;;;;;;;;;;5072710;28;20203;-90
2023/01/06 01:43:57;;;;;;;0.67;0.10;;;;;;;;;;5071255;28;20222;-88
2023/01/06 01:46:26;;;;;;;3.00;0.60;;;;;;;;;;5057479;28;20238;-89
2023/01/06 01:48:56;;;;;;;0.10;0.10;;;;;;;;;;5059262;28;20195;-87
2023/01/06 01:51:27;;;;;;;0.00;0.00;;;;;;;;;;5061966;28;20200;-89
2023/01/06 01:53:56;;;;;;;0.03;0.03;;;;;;;;;;5063029;28;20191;-88
2023/01/06 01:56:26;;;;;;;0.10;0.10;;;;;;;;;;5063649;28;20274;-87
2023/01/06 01:58:57;;;;;;;0.10;0.10;;;;;;;;;;5061033;28;20222;-88
2023/01/06 02:01:25;;;;;;;0.07;0.07;;;;;;;;;;5058832;28;20205;-89
2023/01/06 02:03:55;;;;;;;0.23;0.23;;;;;;;;;;5058125;28;20226;-89
2023/01/06 02:06:25;;;;;;;0.20;0.20;;;;;;;;;;5059359;28;20213;-89
2023/01/06 02:16:10;;;;;;;0.77;0.77;;;;;;;;;;5066128;28;20207;-91
2023/01/06 02:28:14;;;;;;;0.07;0.07;;;;;;;;;;5006334;28;20224;-90
2023/01/06 02:34:16;;;;;;;1.80;0.30;;;;;;;;;;5060243;28;20214;-89
2023/01/06 02:36:51;;;;;;;0.53;0.20;;;;;;;;;;5057745;28;20206;-89
2023/01/06 02:39:23;;;;;;;0.83;0.20;;;;;;;;;;5042186;28;20267;-89
2023/01/06 02:54:27;;;;;;;0.10;0.10;;;;;;;;;;4993834;28;20204;-89
2023/01/06 02:56:58;;;;;;;0.43;0.43;;;;;;;;;;5048162;28;20203;-87
2023/01/06 02:59:27;;;;;;;0.10;0.10;;;;;;;;;;5047209;28;20196;-91
2023/01/06 03:01:56;;;;;;;0.93;0.77;;;;;;;;;;5045237;28;20215;-89
2023/01/06 03:04:24;;;;;;;0.40;0.40;;;;;;;;;;5042976;28;20291;-87
2023/01/06 03:06:52;;;;;;;0.00;0.00;;;;;;;;;;5041435;28;20219;-89
2023/01/06 03:09:24;;;;;;;0.73;0.17;;;;;;;;;;5041339;28;20223;-90
2023/01/06 03:11:52;;;;;;;0.20;0.20;;;;;;;;;;5042410;28;20258;-88
2023/01/06 03:14:22;;;;;;;0.00;0.00;;;;;;;;;;5042913;28;20196;-90
2023/01/06 03:16:53;;;;;;;0.33;0.17;;;;;;;;;;5042960;28;20215;-89
2023/01/06 03:19:22;;;;;;;2.00;0.47;;;;;;;;;;5042796;28;20218;-88
2023/01/06 03:21:53;;;;;;;0.00;0.00;;;;;;;;;;5038408;28;20658;-87
2023/01/06 03:24:22;;;;;;;0.07;0.07;;;;;;;;;;5030192;28;20340;-88
2023/01/06 03:26:52;;;;;;;0.03;0.03;;;;;;;;;;5026612;28;20598;-88
2023/01/06 03:29:24;;;;;;;0.37;0.37;;;;;;;;;;5027801;28;20203;-90
2023/01/06 03:31:57;;;;;;;0.00;0.00;;;;;;;;;;5029893;28;20283;-90
2023/01/06 03:34:34;;;;;;;0.20;0.20;;;;;;;;;;5027872;28;20197;-90
2023/01/06 03:37:10;;;;;;;0.17;0.17;;;;;;;;;;5028794;28;20197;-89
2023/01/06 03:39:49;;;;;;;0.00;0.00;;;;;;;;;;5028629;28;20204;-89
2023/01/06 03:45:14;;;;;;;0.10;0.10;;;;;;;;;;5025535;28;20215;-90
2023/01/06 03:47:46;;;;;;;0.10;0.10;;;;;;;;;;5017949;28;20188;-89
2023/01/06 03:50:19;;;;;;;0.00;0.00;;;;;;;;;;5016975;28;20205;-90
2023/01/06 03:52:50;;;;;;;0.10;0.10;;;;;;;;;;5017343;28;20209;-88
2023/01/06 03:55:21;;;;;;;0.00;0.00;;;;;;;;;;5017568;28;20756;-91
2023/01/06 03:57:52;;;;;;;0.50;0.50;;;;;;;;;;5017239;28;20262;-91
2023/01/06 04:00:24;;;;;;;0.20;0.20;;;;;;;;;;5017799;28;20228;-91
2023/01/06 04:02:53;;;;;;;1.03;1.03;;;;;;;;;;5016936;28;20247;-91
2023/01/06 04:05:22;;;;;;;0.10;0.10;;;;;;;;;;5016331;28;20247;-89
2023/01/06 04:07:49;;;;;;;0.17;0.13;;;;;;;;;;5015656;28;20665;-90
2023/01/06 04:10:18;;;;;;;0.40;0.40;;;;;;;;;;5020826;28;20256;-90
2023/01/06 04:12:49;;;;;;;0.10;0.10;;;;;;;;;;5032463;28;20247;-89
2023/01/06 04:15:21;;;;;;;0.10;0.10;;;;;;;;;;5015955;28;20204;-90
2023/01/06 04:17:49;;;;;;;1.40;1.30;;;;;;;;;;5014514;28;20279;-89
2023/01/06 04:20:17;;;;;;;0.43;0.10;;;;;;;;;;5013400;28;20267;-92
2023/01/06 04:22:46;;;;;;;0.67;0.67;;;;;;;;;;5014407;28;20189;-90
2023/01/06 04:25:15;;;;;;;0.20;0.20;;;;;;;;;;5013609;28;20682;-90
2023/01/06 04:27:47;;;;;;;0.00;0.00;;;;;;;;;;5015440;28;20669;-90
2023/01/06 04:30:19;;;;;;;0.40;0.20;;;;;;;;;;5017279;28;20230;-89
2023/01/06 04:32:49;;;;;;;0.27;0.10;;;;;;;;;;5015399;28;20208;-88
2023/01/06 04:35:18;;;;;;;0.00;0.00;;;;;;;;;;5013965;28;20201;-89
2023/01/06 04:37:49;;;;;;;0.33;0.27;;;;;;;;;;5014456;28;20204;-91
2023/01/06 04:40:17;;;;;;;0.10;0.10;;;;;;;;;;5015989;28;20197;-90
2023/01/06 04:45:40;;;;;;;0.10;0.10;;;;;;;;;;5015254;28;20676;-92
2023/01/06 04:48:12;;;;;;;0.00;0.00;;;;;;;;;;5016216;28;20196;-90
2023/01/06 04:50:40;;;;;;;0.07;0.07;;;;;;;;;;5015850;28;20665;-92
2023/01/06 04:53:11;;;;;;;0.23;0.23;;;;;;;;;;5016794;28;20204;-90
2023/01/06 04:55:52;;;;;;;0.53;0.53;;;;;;;;;;5016477;28;20266;-89
2023/01/06 04:58:20;;;;;;;0.23;0.23;;;;;;;;;;5016079;28;20211;-90
2023/01/06 05:00:50;;;;;;;0.10;0.10;;;;;;;;;;5016940;28;20212;-91
2023/01/06 05:03:18;;;;;;;0.40;0.40;;;;;;;;;;5016043;28;20212;-90
2023/01/06 05:05:49;;;;;;;0.10;0.10;;;;;;;;;;5014719;28;20227;-90
2023/01/06 05:08:18;;;;;;;0.43;0.40;;;;;;;;;;5016692;28;20197;-91
2023/01/06 05:10:50;;;;;;;0.23;0.20;;;;;;;;;;5014741;28;20264;-92
2023/01/06 05:13:18;;;;;;;1.07;1.07;;;;;;;;;;5017383;28;20283;-91
2023/01/06 05:15:48;;;;;;;1.80;1.00;;;;;;;;;;5019153;28;20197;-90
2023/01/06 05:18:21;;;;;;;0.30;0.30;;;;;;;;;;5024132;28;20206;-89
2023/01/06 05:20:53;;;;;;;0.43;0.43;;;;;;;;;;5027496;28;20212;-89
2023/01/06 05:23:24;;;;;;;0.67;0.67;;;;;;;;;;5033415;28;20201;-91
2023/01/06 05:25:53;;;;;;;0.10;0.10;;;;;;;;;;5030189;28;20223;-91
2023/01/06 05:28:22;;;;;;;0.10;0.10;;;;;;;;;;5016433;28;20224;-89
2023/01/06 05:30:52;;;;;;;0.10;0.10;;;;;;;;;;5014867;28;20213;-90
2023/01/06 05:33:28;;;;;;;0.10;0.10;;;;;;;;;;5013563;28;20239;-90
2023/01/06 05:35:59;;;;;;;0.03;0.03;;;;;;;;;;5014662;28;20207;-90
2023/01/06 05:38:27;;;;;;;0.10;0.10;;;;;;;;;;5014208;28;20207;-90
2023/01/06 05:40:56;;;;;;;0.47;0.10;;;;;;;;;;5014602;28;20204;-91
2023/01/06 05:43:24;;;;;;;1.40;1.30;;;;;;;;;;5013823;28;20205;-90
2023/01/06 05:45:54;;;;;;;1.40;1.40;;;;;;;;;;5013683;28;20699;-91
2023/01/06 05:48:23;;;;;;;0.73;0.73;;;;;;;;;;5014541;28;20718;-89
2023/01/06 05:51:05;;;;;;;2.93;2.83;;;;;;;;;;5016512;28;20185;-90
2023/01/06 05:54:18;;;;;;;;;;;;;;;;;;;;;
2023/01/06 05:56:47;;;;;;;0.10;0.10;;;;;;;;;;5018160;28;20189;-90
2023/01/06 05:59:14;;;;;;;0.10;0.07;;;;;;;;;;5013778;28;20662;-87
2023/01/06 06:02:17;;;;;;;0.37;0.23;;;;;;;;;;5021670;28;20211;-89
2023/01/06 06:04:47;;;;;;;0.10;0.10;;;;;;;;;;5017040;28;20581;-90
2023/01/06 06:07:20;;;;;;;0.10;0.10;;;;;;;;;;5020241;28;20207;-88
2023/01/06 06:09:47;;;;;;;0.00;0.00;;;;;;;;;;5019922;28;20719;-89
2023/01/06 06:12:15;;;;;;;0.40;0.40;;;;;;;;;;5018944;28;20602;-89
2023/01/06 06:14:43;;;;;;;0.60;0.37;;;;;;;;;;5018800;28;20577;-89
2023/01/06 06:17:11;;;;;;;0.33;0.33;;;;;;;;;;5018672;28;20260;-89
2023/01/06 06:19:42;;;;;;;0.27;0.27;;;;;;;;;;5004029;28;20217;-91
2023/01/06 06:22:11;;;;;;;0.20;0.20;;;;;;;;;;5004352;28;20204;-90
2023/01/06 06:24:44;;;;;;;0.10;0.10;;;;;;;;;;5007971;28;20197;-91
2023/01/06 06:27:13;;;;;;;0.27;0.27;;;;;;;;;;5019578;28;20207;-90
2023/01/06 06:29:43;;;;;;;0.03;0.03;;;;;;;;;;5027574;28;20226;-91
2023/01/06 06:32:11;;;;;;;0.10;0.10;;;;;;;;;;5024760;28;20292;-90
2023/01/06 06:34:42;;;;;;;0.07;0.07;;;;;;;;;;5019350;28;20271;-90
2023/01/06 06:37:10;;;;;;;0.00;0.00;;;;;;;;;;5019488;28;20656;-90
2023/01/06 06:39:39;;;;;;;0.27;0.27;;;;;;;;;;5028197;28;20207;-90
2023/01/06 06:42:09;;;;;;;0.87;0.20;;;;;;;;;;5026809;28;20468;-90
2023/01/06 06:44:37;;;;;;;0.10;0.10;;;;;;;;;;5017750;28;20189;-89
2023/01/06 06:47:14;;;;;;;0.30;0.30;;;;;;;;;;5017922;28;20583;-91
2023/01/06 06:49:42;;;;;;;0.37;0.37;;;;;;;;;;5017098;28;20211;-91
2023/01/06 06:52:10;;;;;;;0.10;0.10;;;;;;;;;;5018962;28;20723;-90
2023/01/06 06:54:44;;;;;;;0.20;0.20;;;;;;;;;;5015254;28;20282;-92
2023/01/06 06:57:24;;;;;;;0.07;0.07;;;;;;;;;;5010937;28;20216;-89
2023/01/06 06:59:51;;;;;;;0.30;0.10;;;;;;;;;;5022797;28;20197;-89
2023/01/06 07:02:20;;;;;;;0.00;0.00;;;;;;;;;;5023496;28;20206;-90
2023/01/06 07:04:49;;;;;;;0.10;0.10;;;;;;;;;;5023931;28;20688;-90
2023/01/06 07:07:25;;;;;;;0.30;0.30;;;;;;;;;;5022751;28;20228;-91
2023/01/06 07:09:56;;;;;;;0.70;0.33;;;;;;;;;;5023114;28;20225;-91
2023/01/06 07:12:33;;;;;;;0.10;0.10;;;;;;;;;;5024690;28;20256;-91
2023/01/06 07:15:02;;;;;;;0.10;0.10;;;;;;;;;;5026825;28;20219;-91
2023/01/06 07:17:33;;;;;;;0.00;0.00;;;;;;;;;;5026054;28;20199;-91
2023/01/06 07:20:06;;;;;;;0.20;0.20;;;;;;;;;;5029922;28;20200;-88
2023/01/06 07:22:36;;;;;;;0.23;0.23;;;;;;;;;;5035897;28;20204;-88
2023/01/06 07:25:09;;;;;;;0.57;0.57;;;;;;;;;;5032535;28;20206;-90
2023/01/06 07:27:42;;;;;;;0.40;0.20;;;;;;;;;;5023404;28;20196;-91
2023/01/06 07:30:15;;;;;;;0.20;0.20;;;;;;;;;;5022119;28;20206;-92
2023/01/06 07:32:48;;;;;;;0.28;0.28;;;;;;;;;;5021817;28;20310;-91
2023/01/06 07:35:21;;;;;;;0.10;0.10;;;;;;;;;;5020976;28;20216;-91
2023/01/06 07:38:12;;;;;;;0.10;0.10;;;;;;;;;;5022437;28;20202;-92
2023/01/06 07:40:40;;;;;;;0.10;0.00;;;;;;;;;;5021537;28;20586;-91
2023/01/06 07:43:17;;;;;;;0.00;0.00;;;;;;;;;;5018139;28;20320;-90
2023/01/06 07:45:49;;;;;;;0.07;0.07;;;;;;;;;;5016188;28;20230;-91
2023/01/06 07:48:20;;;;;;;0.00;0.00;;;;;;;;;;5020944;28;20307;-90
2023/01/06 07:50:59;;;;;;;0.30;0.10;;;;;;;;;;5022047;28;20670;-92
2023/01/06 07:53:35;;;;;;;0.10;0.10;;;;;;;;;;5020815;28;20257;-92
2023/01/06 07:56:20;;;;;;;0.30;0.00;;;;;;;;;;5019455;28;20207;-91
2023/01/06 08:01:42;;;;;;;0.30;0.20;;;;;;;;;;5015853;23;20228;-92
2023/01/06 08:04:27;;;;;;;0.13;0.13;;;;;;;;;;5006099;28;20202;-91
2023/01/06 08:06:58;;;;;;;0.07;0.07;;;;;;;;;;5002965;28;20197;-91
2023/01/06 08:09:35;;;;;;;0.10;0.10;;;;;;;;;;5002094;28;20740;-91
2023/01/06 08:12:03;;;;;;;0.28;0.20;;;;;;;;;;4973153;28;20245;-92
2023/01/06 08:14:52;;;;;;;0.00;0.00;;;;;;;;;;4982843;28;20303;-90
2023/01/06 08:17:31;;;;;;;1.60;0.10;;;;;;;;;;4980929;28;20209;-90
2023/01/06 08:20:03;;;;;;;0.00;0.00;;;;;;;;;;4963037;28;20636;-91
2023/01/06 08:22:36;;;;;;;0.00;0.00;;;;;;;;;;4969445;28;20218;-93
2023/01/06 08:25:08;;;;;;;0.17;0.17;;;;;;;;;;4982531;28;20708;-92
2023/01/06 08:27:36;;;;;;;0.00;0.00;;;;;;;;;;4985360;28;20202;-91
2023/01/06 08:30:12;;;;;;;0.10;0.10;;;;;;;;;;5006285;28;20217;-90
2023/01/06 08:32:51;;;;;;;0.00;0.00;;;;;;;;;;5015060;28;20234;-90
2023/01/06 08:35:30;;;;;;;;;;;;;;;;;;;;;
2023/01/06 08:38:01;;;;;;;0.00;0.00;;;;;;;;;;5017082;28;20211;-89
2023/01/06 08:40:32;;;;;;;0.00;0.00;;;;;;;;;;5016974;28;20190;-91
2023/01/06 08:43:15;;;;;;;0.10;0.10;;;;;;;;;;5016780;28;20250;-92
2023/01/06 08:46:03;;;;;;;0.10;0.10;;;;;;;;;;4991013;28;20217;-90
2023/01/06 08:48:41;;;;;;;0.00;0.00;;;;;;;;;;4986341;28;20715;-89
2023/01/06 08:51:11;;;;;;;1.10;1.10;;;;;;;;;;4981060;28;20201;-90
2023/01/06 08:53:40;;;;;;;0.20;0.20;;;;;;;;;;4980041;28;20227;-91
2023/01/06 08:59:19;;;;;;;0.20;0.20;;;;;;;;;;4979821;28;20212;-91
2023/01/06 09:04:38;;;;;;;1.40;0.82;;;;;;;;;;4944404;29;20262;-92
2023/01/06 09:07:09;;;;;;;0.15;0.10;;;;;;;;;;4946081;29;20213;-92
2023/01/06 09:12:33;;;;;;;0.10;0.10;;;;;;;;;;4948852;29;20291;-90
2023/01/06 09:15:15;;;;;;;0.00;0.00;;;;;;;;;;4953496;28;20671;-89
2023/01/06 09:17:44;;;;;;;0.00;0.00;;;;;;;;;;4960227;29;20204;-91
2023/01/06 09:23:32;;;;;;;0.00;0.00;;;;;;;;;;4943033;29;20202;-91
2023/01/06 09:28:58;;;;;;;0.25;0.25;;;;;;;;;;4943288;29;20211;-92
2023/01/06 09:31:30;;;;;;;0.00;0.00;;;;;;;;;;4944787;29;20212;-91
2023/01/06 09:34:02;;;;;;;0.50;0.50;;;;;;;;;;4948736;29;20256;-91
2023/01/06 09:36:37;;;;;;;0.00;0.00;;;;;;;;;;4950476;29;20690;-90
2023/01/06 09:39:10;;;;;;;0.00;0.00;;;;;;;;;;4957262;29;20279;-91
2023/01/06 09:41:53;;;;;;;0.30;0.30;;;;;;;;;;4962611;28;20203;-89
2023/01/06 09:44:25;;;;;;;0.00;0.00;;;;;;;;;;4960776;28;20804;-89
2023/01/06 09:46:54;;;;;;;0.20;0.17;;;;;;;;;;4963127;28;20205;-90
2023/01/06 09:49:25;;;;;;;0.30;0.30;;;;;;;;;;4959641;28;20212;-90
2023/01/06 09:51:54;;;;;;;0.65;0.20;;;;;;;;;;4957785;28;20209;-89
2023/01/06 09:54:39;;;;;;;0.00;0.00;;;;;;;;;;4960037;28;20236;-89
2023/01/06 09:57:16;;;;;;;0.00;0.00;;;;;;;;;;4941010;29;20206;-88
2023/01/06 09:59:57;;;;;;;1.27;0.10;;;;;;;;;;4951743;28;20229;-90
2023/01/06 10:02:35;;;;;;;0.08;0.08;;;;;;;;;;4980575;28;20597;-89
2023/01/06 10:05:05;;;;;;;0.47;0.00;;;;;;;;;;4981543;28;20201;-89
2023/01/06 10:07:40;;;;;;;0.10;0.10;;;;;;;;;;4988671;28;20202;-88
2023/01/06 10:10:23;;;;;;;0.10;0.10;;;;;;;;;;4995847;28;20211;-89
2023/01/06 10:16:18;;;;;;;0.00;0.00;;;;;;;;;;4996700;28;20180;-89
2023/01/06 10:18:51;;;;;;;0.03;0.03;;;;;;;;;;4996881;28;20179;-90
2023/01/06 10:21:29;;;;;;;0.20;0.20;;;;;;;;;;4997012;28;20256;-89
2023/01/06 10:24:23;;;;;;;0.10;0.10;;;;;;;;;;4996681;28;20209;-88
2023/01/06 10:26:55;;;;;;;0.00;0.00;;;;;;;;;;4996424;28;20210;-89
2023/01/06 10:29:26;;;;;;;0.30;0.30;;;;;;;;;;4996284;28;20284;-91
2023/01/06 10:31:54;;;;;;;0.00;0.00;;;;;;;;;;4993942;28;20191;-88
2023/01/06 10:34:27;;;;;;;0.00;0.00;;;;;;;;;;5000929;28;20210;-89
2023/01/06 10:37:13;;;;;;;0.47;0.00;;;;;;;;;;4996640;28;20202;-88
2023/01/06 10:40:00;;;;;;;0.20;0.20;;;;;;;;;;4992190;28;20744;-88
2023/01/06 10:45:39;;;;;;;;;;;;;;;;;;;;;
2023/01/06 10:48:11;;;;;;;0.00;0.00;;;;;;;;;;4982026;28;20222;-88
2023/01/06 10:50:58;;;;;;;0.37;0.17;;;;;;;;;;4970187;28;20265;-90
2023/01/06 10:53:26;;;;;;;0.83;0.40;;;;;;;;;;4967874;28;20670;-90
2023/01/06 10:55:55;;;;;;;0.80;0.10;;;;;;;;;;4983152;28;20607;-89
2023/01/06 10:58:37;;;;;;;0.10;0.10;;;;;;;;;;4982284;28;20597;-88
2023/01/06 11:01:21;;;;;;;0.43;0.43;;;;;;;;;;4981144;28;20215;-88
2023/01/06 11:04:10;;;;;;;0.00;0.00;;;;;;;;;;4983268;28;20286;-90
2023/01/06 11:06:46;;;;;;;0.10;0.10;;;;;;;;;;4981878;28;20678;-90
2023/01/06 11:09:39;;;;;;;2.23;0.67;;;;;;;;;;4982364;28;20239;-87
2023/01/06 11:12:10;;;;;;;0.00;0.00;;;;;;;;;;4968788;28;20684;-87
2023/01/06 11:14:44;;;;;;;0.30;0.30;;;;;;;;;;4984004;28;20228;-89
2023/01/06 11:17:34;;;;;;;0.10;0.10;;;;;;;;;;4986275;28;20204;-88
2023/01/06 11:20:32;;;;;;;0.00;0.00;;;;;;;;;;4984177;28;20193;-88
2023/01/06 11:23:25;;;;;;;0.08;0.08;;;;;;;;;;4985026;28;20200;-86
2023/01/06 11:26:03;;;;;;;0.63;0.63;;;;;;;;;;4971126;28;20211;-87
2023/01/06 11:28:34;;;;;;;0.10;0.07;;;;;;;;;;4969554;28;20309;-90
2023/01/06 11:31:08;;;;;;;0.00;0.00;;;;;;;;;;4964163;28;20242;-87
2023/01/06 11:33:38;;;;;;;0.30;0.30;;;;;;;;;;4961619;28;20328;-89
2023/01/06 11:36:19;;;;;;;0.43;0.43;;;;;;;;;;4945408;29;20199;-88
2023/01/06 11:39:09;;;;;;;0.13;0.13;;;;;;;;;;4961706;28;20636;-88
2023/01/06 11:41:38;;;;;;;0.10;0.10;;;;;;;;;;4983066;28;20199;-88
2023/01/06 11:44:31;;;;;;;0.40;0.27;;;;;;;;;;4983296;28;20198;-90
2023/01/06 11:47:07;;;;;;;0.30;0.30;;;;;;;;;;4951816;28;20227;-88
2023/01/06 11:49:53;;;;;;;0.10;0.10;;;;;;;;;;4952931;28;20737;-88
2023/01/06 11:52:32;;;;;;;0.20;0.20;;;;;;;;;;4959047;28;20757;-90
2023/01/06 11:55:05;;;;;;;0.20;0.20;;;;;;;;;;4959634;28;20357;-90
2023/01/06 11:57:42;;;;;;;0.40;0.40;;;;;;;;;;4974363;28;20254;-88
2023/01/06 12:00:21;;;;;;;0.00;0.00;;;;;;;;;;4972306;28;20225;-89
2023/01/06 12:02:52;;;;;;;0.00;0.00;;;;;;;;;;4960038;28;20229;-88
2023/01/06 12:05:29;;;;;;;1.20;0.40;;;;;;;;;;4981257;28;20225;-88
2023/01/06 12:11:02;;;;;;;0.00;0.00;;;;;;;;;;5005915;23;20805;-88
2023/01/06 12:13:32;;;;;;;0.10;0.10;;;;;;;;;;4979937;28;20237;-89
2023/01/06 12:16:09;;;;;;;0.30;0.30;;;;;;;;;;4981170;28;20721;-89
2023/01/06 12:18:40;;;;;;;0.20;0.10;;;;;;;;;;4980455;28;20267;-91
2023/01/06 12:21:10;;;;;;;0.20;0.20;;;;;;;;;;4980007;28;20780;-90
2023/01/06 12:23:42;;;;;;;0.13;0.13;;;;;;;;;;4980737;28;20668;-90
2023/01/06 12:26:25;;;;;;;0.10;0.10;;;;;;;;;;4981360;28;20219;-90
2023/01/06 12:29:10;;;;;;;0.10;0.10;;;;;;;;;;4983884;28;20223;-90
2023/01/06 12:31:50;;;;;;;0.57;0.20;;;;;;;;;;4982712;28;20250;-91
2023/01/06 12:34:30;;;;;;;0.17;0.17;;;;;;;;;;4985870;28;20276;-89
2023/01/06 12:39:53;;;;;;;0.10;0.10;;;;;;;;;;4978240;28;20222;-90
2023/01/06 12:42:49;;;;;;;0.33;0.33;;;;;;;;;;4978790;28;20739;-92
2023/01/06 12:45:30;;;;;;;0.00;0.00;;;;;;;;;;4978929;28;20230;-90
2023/01/06 12:48:00;;;;;;;0.00;0.00;;;;;;;;;;4981264;28;20356;-89
2023/01/06 12:50:32;;;;;;;0.10;0.10;;;;;;;;;;4980145;28;20757;-91
2023/01/06 12:53:04;;;;;;;0.00;0.00;;;;;;;;;;4979790;28;20284;-91
2023/01/06 12:55:39;;;;;;;0.10;0.10;;;;;;;;;;4979325;28;20233;-89
2023/01/06 12:58:23;;;;;;;0.10;0.10;;;;;;;;;;4979435;28;20297;-89
2023/01/06 13:04:12;;;;;;;0.63;0.20;;;;;;;;;;5005628;23;20303;-88
2023/01/06 13:06:52;;;;;;;0.00;0.00;;;;;;;;;;4986814;28;20225;-89
2023/01/06 13:09:46;;;;;;;0.10;0.10;;;;;;;;;;4982264;28;20232;-88
2023/01/06 13:12:44;;;;;;;0.40;0.40;;;;;;;;;;4982992;28;20229;-89
2023/01/06 13:15:24;;;;;;;0.10;0.10;;;;;;;;;;4979207;28;20246;-88
2023/01/06 13:18:02;;;;;;;0.00;0.00;;;;;;;;;;4976727;28;20239;-89
2023/01/06 13:20:57;;;;;;;0.47;0.43;;;;;;;;;;4978573;28;20251;-90
2023/01/06 13:23:49;;;;;;;0.57;0.20;;;;;;;;;;4978014;28;20223;-88
2023/01/06 13:26:33;;;;;;;0.10;0.10;;;;;;;;;;4968630;28;20235;-89
2023/01/06 13:29:05;;;;;;;0.30;0.30;;;;;;;;;;5021910;23;20241;-89
2023/01/06 13:31:56;;;;;;;0.10;0.10;;;;;;;;;;4987824;28;20240;-89
2023/01/06 13:34:49;;;;;;;0.40;0.30;;;;;;;;;;4920074;29;20235;-89
2023/01/06 13:37:28;;;;;;;2.43;1.50;;;;;;;;;;4924196;29;20266;-91
2023/01/06 13:40:02;;;;;;;0.20;0.20;;;;;;;;;;4979155;28;20242;-89
2023/01/06 13:42:37;;;;;;;0.37;0.37;;;;;;;;;;4979855;28;20228;-88
2023/01/06 13:45:30;;;;;;;0.00;0.00;;;;;;;;;;4979090;28;20233;-90
2023/01/06 13:50:46;;;;;;;0.23;0.23;;;;;;;;;;4995857;28;20396;-89
2023/01/06 13:53:17;;;;;;;1.70;0.17;;;;;;;;;;4994051;28;20232;-88
2023/01/06 13:56:05;;;;;;;0.10;0.10;;;;;;;;;;4999870;28;20287;-89
2023/01/06 13:58:36;;;;;;;0.40;0.40;;;;;;;;;;4995080;28;20292;-89
2023/01/06 14:01:11;;;;;;;0.20;0.20;;;;;;;;;;4990343;28;20289;-88
2023/01/06 14:03:42;;;;;;;0.17;0.17;;;;;;;;;;4978422;28;20242;-89
2023/01/06 14:06:13;;;;;;;0.00;0.00;;;;;;;;;;4978954;28;20258;-88
2023/01/06 14:08:57;;;;;;;0.00;0.00;;;;;;;;;;4994352;28;20293;-89
2023/01/06 14:11:42;;;;;;;1.23;0.50;;;;;;;;;;4984695;28;20229;-89
2023/01/06 14:14:28;;;;;;;0.60;0.10;;;;;;;;;;4979104;28;20229;-90
2023/01/06 14:16:56;;;;;;;0.10;0.10;;;;;;;;;;4980760;28;20286;-88
2023/01/06 14:19:25;;;;;;;2.10;0.53;;;;;;;;;;4976649;28;20237;-90
2023/01/06 14:21:54;;;;;;;0.13;0.13;;;;;;;;;;4977019;28;20254;-88
2023/01/06 14:24:34;;;;;;;0.33;0.33;;;;;;;;;;4975190;28;20309;-89
2023/01/06 14:27:07;;;;;;;0.37;0.37;;;;;;;;;;4973146;28;20314;-88
2023/01/06 14:29:48;;;;;;;0.77;0.73;;;;;;;;;;4972421;28;20233;-90
2023/01/06 14:32:30;;;;;;;0.40;0.40;;;;;;;;;;4970980;28;20249;-89
2023/01/06 14:34:59;;;;;;;0.93;0.60;;;;;;;;;;4972515;28;20309;-90
2023/01/06 14:37:35;;;;;;;0.27;0.27;;;;;;;;;;4973192;28;20730;-89
2023/01/06 14:40:11;;;;;;;0.17;0.17;;;;;;;;;;4972920;28;20793;-89
2023/01/06 14:42:44;;;;;;;0.83;0.33;;;;;;;;;;4982234;28;20421;-90
2023/01/06 14:45:16;;;;;;;0.20;0.20;;;;;;;;;;4953810;28;20224;-91
2023/01/06 14:47:46;;;;;;;0.00;0.00;;;;;;;;;;4954766;28;20231;-89
2023/01/06 14:50:16;;;;;;;0.37;0.37;;;;;;;;;;4959880;28;20223;-89
2023/01/06 14:52:49;;;;;;;0.30;0.20;;;;;;;;;;4960570;28;20223;-88
2023/01/06 14:55:21;;;;;;;0.53;0.53;;;;;;;;;;4953531;28;20241;-89
2023/01/06 14:57:51;;;;;;;0.60;0.50;;;;;;;;;;4954428;28;20302;-89
2023/01/06 15:00:22;;;;;;;1.20;0.40;;;;;;;;;;4953227;28;20241;-90
2023/01/06 15:02:52;;;;;;;0.10;0.10;;;;;;;;;;4955397;28;20619;-88
2023/01/06 15:05:21;;;;;;;0.20;0.20;;;;;;;;;;4954071;28;20234;-88
2023/01/06 15:08:19;;;;;;;0.07;0.07;;;;;;;;;;4959584;28;20726;-89
2023/01/06 15:10:51;;;;;;;0.80;0.80;;;;;;;;;;4972118;28;20281;-87
2023/01/06 15:13:23;;;;;;;0.20;0.20;;;;;;;;;;4971091;28;20726;-88
2023/01/06 15:15:54;;;;;;;0.20;0.20;;;;;;;;;;4971251;28;20354;-88
2023/01/06 15:18:21;;;;;;;0.83;0.50;;;;;;;;;;4973530;28;20242;-90
2023/01/06 15:20:52;;;;;;;0.40;0.40;;;;;;;;;;4975322;28;20320;-88
2023/01/06 15:23:21;;;;;;;0.20;0.20;;;;;;;;;;4976144;28;20686;-88
2023/01/06 15:25:53;;;;;;;0.10;0.10;;;;;;;;;;4979908;28;20226;-90
2023/01/06 15:28:37;;;;;;;0.13;0.13;;;;;;;;;;4975289;28;20228;-87
2023/01/06 15:33:49;;;;;;;2.00;0.60;;;;;;;;;;4974420;28;20323;-90
2023/01/06 15:36:19;;;;;;;0.27;0.27;;;;;;;;;;4975063;28;20285;-88
2023/01/06 15:38:57;;;;;;;1.10;0.33;;;;;;;;;;4977538;28;20222;-89
2023/01/06 15:41:36;;;;;;;0.80;0.70;;;;;;;;;;4985035;28;20674;-89
2023/01/06 15:44:20;;;;;;;1.47;1.37;;;;;;;;;;4981306;28;20260;-88
2023/01/06 15:46:50;;;;;;;1.23;0.73;;;;;;;;;;4982532;28;20218;-90
2023/01/06 15:49:23;;;;;;;0.57;0.50;;;;;;;;;;4982913;28;20229;-88
2023/01/06 15:51:57;;;;;;;1.17;0.50;;;;;;;;;;4979566;28;20226;-89
2023/01/06 15:54:39;;;;;;;0.20;0.20;;;;;;;;;;4983403;28;20257;-88
2023/01/06 16:00:48;;;;;;;2.10;0.87;;;;;;;;;;4984093;28;20261;-87
2023/01/06 16:06:20;;;;;;;1.13;1.13;;;;;;;;;;4964209;28;20257;-87
2023/01/06 16:12:09;;;;;;;0.70;0.70;;;;;;;;;;4974575;23;20242;-88
2023/01/06 16:14:49;;;;;;;0.73;0.73;;;;;;;;;;4973039;28;20329;-87
2023/01/06 16:17:35;;;;;;;0.70;0.43;;;;;;;;;;4994533;28;20204;-86
2023/01/06 16:20:20;;;;;;;0.20;0.20;;;;;;;;;;4988276;28;20195;-89
2023/01/06 16:25:42;;;;;;;0.97;0.97;;;;;;;;;;4993131;23;20362;-88
2023/01/06 16:28:32;;;;;;;0.20;0.20;;;;;;;;;;4969231;28;20205;-86
2023/01/06 16:34:40;;;;;;;0.10;0.10;;;;;;;;;;4965885;28;20275;-88
2023/01/06 16:37:31;;;;;;;0.00;0.00;;;;;;;;;;4955351;28;20209;-90
2023/01/06 16:40:05;;;;;;;0.30;0.10;;;;;;;;;;4975862;28;20202;-88
2023/01/06 16:45:23;;;;;;;0.10;0.10;;;;;;;;;;4974359;23;20294;-89
2023/01/06 16:47:57;;;;;;;0.63;0.63;;;;;;;;;;4957688;29;20652;-88
2023/01/06 16:50:26;;;;;;;1.03;0.63;;;;;;;;;;4959724;29;20222;-88
2023/01/06 16:53:03;;;;;;;0.20;0.20;;;;;;;;;;4962287;29;20298;-87
2023/01/06 16:55:32;;;;;;;0.47;0.20;;;;;;;;;;4973659;28;20233;-89
2023/01/06 16:58:02;;;;;;;0.30;0.30;;;;;;;;;;4974829;28;20266;-88
2023/01/06 17:00:30;;;;;;;0.00;0.00;;;;;;;;;;4958488;29;20210;-88
2023/01/06 17:03:00;;;;;;;0.40;0.40;;;;;;;;;;4956101;29;20203;-87
2023/01/06 17:05:29;;;;;;;0.30;0.30;;;;;;;;;;4954360;29;20234;-88
2023/01/06 17:08:09;;;;;;;0.23;0.23;;;;;;;;;;4956485;29;20198;-89
2023/01/06 17:10:40;;;;;;;0.17;0.17;;;;;;;;;;4975075;28;20312;-88
2023/01/06 17:15:59;;;;;;;0.10;0.10;;;;;;;;;;4975108;28;20325;-89
2023/01/06 17:18:28;;;;;;;0.87;0.83;;;;;;;;;;4978997;28;20292;-89